sensor_id;sensor_type;location;lat;lon;timestamp;P1;durP1;ratioP1;P2;durP2;ratioP2
12072;SDS011;6098;49.004;8.372;2023-02-04T00:03:20;6.72;;;4.79;;
12072;SDS011;6098;49.004;8.372;2023-02-04T00:18:11;6.23;;;5.17;;
12072;SDS011;6098;49.004;8.372;2023-02-04T00:33:01;6.94;;;5.52;;
12072;SDS011;6098;49.004;8.372;2023-02-04T00:47:51;9.29;;;5.91;;
12072;SDS011;6098;49.004;8.372;2023-02-04T01:02:42;6.71;;;5.60;;
12072;SDS011;6098;49.004;8.372;2023-02-04T01:17:32;7.92;;;5.87;;
12072;SDS011;6098;49.004;8.372;2023-02-04T01:32:23;9.32;;;6.71;;
12072;SDS011;6098;49.004;8.372;2023-02-04T01:47:18;9.74;;;7.32;;
12072;SDS011;6098;49.004;8.372;2023-02-04T02:17:32;12.54;;;7.16;;
12072;SDS011;6098;49.004;8.372;2023-02-04T02:32:22;9.67;;;6.69;;
12072;SDS011;6098;49.004;8.372;2023-02-04T02:47:17;6.04;;;4.92;;
12072;SDS011;6098;49.004;8.372;2023-02-04T03:02:10;9.41;;;5.69;;
12072;SDS011;6098;49.004;8.372;2023-02-04T03:17:00;8.67;;;5.97;;
12072;SDS011;6098;49.004;8.372;2023-02-04T03:31:51;5.97;;;3.27;;
12072;SDS011;6098;49.004;8.372;2023-02-04T03:46:42;11.04;;;3.93;;
12072;SDS011;6098;49.004;8.372;2023-02-04T04:01:35;5.91;;;3.20;;
12072;SDS011;6098;49.004;8.372;2023-02-04T04:16:26;9.49;;;3.64;;
12072;SDS011;6098;49.004;8.372;2023-02-04T04:31:16;7.34;;;3.37;;
12072;SDS011;6098;49.004;8.372;2023-02-04T04:46:07;8.63;;;3.22;;
12072;SDS011;6098;49.004;8.372;2023-02-04T05:00:58;8.53;;;3.91;;
12072;SDS011;6098;49.004;8.372;2023-02-04T05:15:50;8.82;;;3.43;;
12072;SDS011;6098;49.004;8.372;2023-02-04T05:30:41;11.69;;;3.78;;
12072;SDS011;6098;49.004;8.372;2023-02-04T05:45:32;7.71;;;3.67;;
12072;SDS011;6098;49.004;8.372;2023-02-04T06:00:23;7.18;;;3.51;;
12072;SDS011;6098;49.004;8.372;2023-02-04T06:15:16;5.17;;;2.26;;
12072;SDS011;6098;49.004;8.372;2023-02-04T06:30:07;6.08;;;3.23;;
12072;SDS011;6098;49.004;8.372;2023-02-04T06:44:58;8.23;;;3.11;;
12072;SDS011;6098;49.004;8.372;2023-02-04T06:59:50;4.89;;;2.10;;
12072;SDS011;6098;49.004;8.372;2023-02-04T07:14:40;5.24;;;2.21;;
12072;SDS011;6098;49.004;8.372;2023-02-04T07:29:32;3.84;;;2.10;;
12072;SDS011;6098;49.004;8.372;2023-02-04T07:44:24;5.38;;;2.23;;
12072;SDS011;6098;49.004;8.372;2023-02-04T07:59:15;6.36;;;2.56;;
12072;SDS011;6098;49.004;8.372;2023-02-04T08:14:06;5.14;;;2.52;;
12072;SDS011;6098;49.004;8.372;2023-02-04T08:28:57;7.16;;;3.00;;
12072;SDS011;6098;49.004;8.372;2023-02-04T08:43:47;7.54;;;3.13;;
12072;SDS011;6098;49.004;8.372;2023-02-04T08:58:38;6.84;;;2.88;;
12072;SDS011;6098;49.004;8.372;2023-02-04T09:13:29;6.63;;;3.18;;
12072;SDS011;6098;49.004;8.372;2023-02-04T09:28:21;8.29;;;3.13;;
12072;SDS011;6098;49.004;8.372;2023-02-04T09:43:16;11.56;;;3.21;;
12072;SDS011;6098;49.004;8.372;2023-02-04T09:58:21;11.98;;;4.19;;
12072;SDS011;6098;49.004;8.372;2023-02-04T10:13:16;7.48;;;3.26;;
12072;SDS011;6098;49.004;8.372;2023-02-04T10:28:05;9.14;;;3.29;;
12072;SDS011;6098;49.004;8.372;2023-02-04T10:42:56;11.42;;;3.26;;
12072;SDS011;6098;49.004;8.372;2023-02-04T10:57:48;9.43;;;3.21;;
12072;SDS011;6098;49.004;8.372;2023-02-04T11:27:47;12.61;;;3.43;;
12072;SDS011;6098;49.004;8.372;2023-02-04T11:42:39;10.92;;;3.83;;
12072;SDS011;6098;49.004;8.372;2023-02-04T11:57:36;12.42;;;3.42;;
12072;SDS011;6098;49.004;8.372;2023-02-04T12:12:24;9.66;;;2.93;;
12072;SDS011;6098;49.004;8.372;2023-02-04T12:27:16;11.13;;;3.62;;
12072;SDS011;6098;49.004;8.372;2023-02-04T12:42:08;8.64;;;1.71;;
12072;SDS011;6098;49.004;8.372;2023-02-04T12:56:58;8.34;;;2.91;;
12072;SDS011;6098;49.004;8.372;2023-02-04T13:11:47;7.98;;;2.19;;
12072;SDS011;6098;49.004;8.372;2023-02-04T13:26:38;4.76;;;1.66;;
12072;SDS011;6098;49.004;8.372;2023-02-04T13:41:30;6.67;;;2.39;;
12072;SDS011;6098;49.004;8.372;2023-02-04T13:56:20;9.09;;;2.54;;
12072;SDS011;6098;49.004;8.372;2023-02-04T14:11:09;6.91;;;2.27;;
12072;SDS011;6098;49.004;8.372;2023-02-04T14:26:00;11.81;;;3.10;;
12072;SDS011;6098;49.004;8.372;2023-02-04T14:40:50;8.28;;;2.71;;
12072;SDS011;6098;49.004;8.372;2023-02-04T14:55:42;5.06;;;2.46;;
12072;SDS011;6098;49.004;8.372;2023-02-04T15:10:33;9.76;;;2.71;;
12072;SDS011;6098;49.004;8.372;2023-02-04T15:25:24;9.13;;;2.37;;
12072;SDS011;6098;49.004;8.372;2023-02-04T15:40:13;5.98;;;2.10;;
12072;SDS011;6098;49.004;8.372;2023-02-04T15:55:05;7.13;;;1.96;;
12072;SDS011;6098;49.004;8.372;2023-02-04T16:09:56;6.94;;;2.86;;
12072;SDS011;6098;49.004;8.372;2023-02-04T16:24:46;10.73;;;3.48;;
12072;SDS011;6098;49.004;8.372;2023-02-04T16:39:37;12.76;;;3.79;;
12072;SDS011;6098;49.004;8.372;2023-02-04T16:54:27;7.76;;;3.26;;
12072;SDS011;6098;49.004;8.372;2023-02-04T17:09:17;10.87;;;3.54;;
12072;SDS011;6098;49.004;8.372;2023-02-04T17:24:08;11.94;;;3.58;;
12072;SDS011;6098;49.004;8.372;2023-02-04T17:38:58;10.10;;;3.71;;
12072;SDS011;6098;49.004;8.372;2023-02-04T17:53:48;15.03;;;5.54;;
12072;SDS011;6098;49.004;8.372;2023-02-04T18:08:38;27.44;;;12.88;;
12072;SDS011;6098;49.004;8.372;2023-02-04T18:23:29;16.32;;;7.42;;
12072;SDS011;6098;49.004;8.372;2023-02-04T18:38:19;15.53;;;7.91;;
12072;SDS011;6098;49.004;8.372;2023-02-04T18:53:21;18.89;;;9.01;;
12072;SDS011;6098;49.004;8.372;2023-02-04T19:08:19;15.29;;;7.62;;
12072;SDS011;6098;49.004;8.372;2023-02-04T19:23:13;15.63;;;6.06;;
12072;SDS011;6098;49.004;8.372;2023-02-04T19:38:19;11.09;;;5.97;;
12072;SDS011;6098;49.004;8.372;2023-02-04T19:53:21;13.86;;;7.69;;
12072;SDS011;6098;49.004;8.372;2023-02-04T20:23:27;12.21;;;5.34;;
12072;SDS011;6098;49.004;8.372;2023-02-04T20:38:19;9.53;;;5.16;;
12072;SDS011;6098;49.004;8.372;2023-02-04T21:08:25;10.81;;;4.14;;
12072;SDS011;6098;49.004;8.372;2023-02-04T21:23:20;13.10;;;6.70;;
12072;SDS011;6098;49.004;8.372;2023-02-04T21:38:09;14.19;;;6.79;;
12072;SDS011;6098;49.004;8.372;2023-02-04T21:52:59;13.18;;;8.33;;
12072;SDS011;6098;49.004;8.372;2023-02-04T22:07:49;16.24;;;7.87;;
12072;SDS011;6098;49.004;8.372;2023-02-04T22:22:40;16.34;;;8.82;;
12072;SDS011;6098;49.004;8.372;2023-02-04T22:37:30;16.19;;;8.74;;
12072;SDS011;6098;49.004;8.372;2023-02-04T22:52:20;14.51;;;8.36;;
12072;SDS011;6098;49.004;8.372;2023-02-04T23:07:11;15.16;;;8.18;;
12072;SDS011;6098;49.004;8.372;2023-02-04T23:22:00;13.52;;;6.98;;
12072;SDS011;6098;49.004;8.372;2023-02-04T23:36:51;17.53;;;10.08;;
12072;SDS011;6098;49.004;8.372;2023-02-04T23:51:43;13.29;;;7.29;;
